Columbia Gorge Regional the Dalles Municipal Airport
KDLS : rendu visible

Aérodrome :











RETROUVEZ-NOUS SUR...

 
LOGIN :

S'inscrire | Disclaimer

   EN    FR    IT 

 









Légende :    VFR   VFR Marginal   IFR   IFR Intensif   IFR Très Intensif
Visi : 
Plafond : 
>= 8 km
>= 3000ft
5 à 8 km
1000 à 3000 ft
1500m à 5 km
500 à 1000 ft
800 à 1500m
200 à 500 ft
< 800m
< 200 ft
Symboles :   Orages  Brouillard  Fortes neiges  Fortes précipitations  Vent > 20 kt






- Altitude de l'aérodrome : 247 ft


KDLS - Columbia Gorge Regional the Dalles Municipal

DERNIER METAR :
  • 221453Z AUTO 10003KT 10SM CLR 01/M03 A3013 RMK AO2 SLP205 T00061028 58001

METARs EXPIRÉS :
  • 221353Z AUTO 10003KT 10SM CLR M02/M04 A3014 RMK AO2 SLP207 T10221044
  • 221253Z AUTO 00000KT 10SM CLR M02/M04 A3013 RMK AO2 SLP206 T10221039

TAF KDLS
Valide du 22 à 12h jusqu'au 23 à 12h UTC


221120Z 2212/2312 VRB04KT P6SM SCT250
FM221900 31010KT P6SM BKN180
FM230400 VRB04KT P6SM BKN150



MET'MAP, la Météo Aéronautique d'un coup d'oeil ! - Copyright ORBIFLY Décembre 2007 - Disclaimer

ORBIFLY MET'MAP TEAM :

Programmation & Développement : Alexandra Zaïnal
Sur une idée originale de : Baudouin d'Aumeries
Assistance à la programmation : Marc-Olivier Méhu
Soutien technique & logistique : Manuel Goepfert

Contact : metmap@orbifly.com




SOURCES & CREDITS :

   NOAA       Earth
Advisory